createdAt,value
2023-03-01T00:00:19.813Z,17.10
2023-03-01T00:00:54.560Z,17.63
2023-03-01T00:01:29.220Z,15.05
2023-03-01T00:02:07.301Z,16.48
2023-03-01T00:02:42.539Z,20.58
2023-03-01T00:03:17.453Z,23.35
2023-03-01T00:03:57.605Z,13.60
2023-03-01T00:04:29.786Z,23.33
2023-03-01T00:05:01.867Z,28.70
2023-03-01T00:05:34.158Z,17.20
2023-03-01T00:06:09.863Z,17.15
2023-03-01T00:06:44.021Z,18.67
2023-03-01T00:07:16.090Z,23.98
2023-03-01T00:07:50.820Z,18.00
2023-03-01T00:08:23.369Z,20.60
2023-03-01T00:08:58.266Z,16.88
2023-03-01T00:09:33.281Z,18.90
2023-03-01T00:10:06.800Z,19.42
2023-03-01T00:10:39.001Z,20.88
2023-03-01T00:11:20.690Z,20.23
2023-03-01T00:11:54.193Z,13.63
2023-03-01T00:12:26.320Z,18.30
2023-03-01T00:13:01.040Z,19.55
2023-03-01T00:13:33.682Z,17.35
2023-03-01T00:14:08.903Z,16.58
2023-03-01T00:14:49.888Z,23.08
2023-03-01T00:15:22.659Z,22.30
2023-03-01T00:15:56.052Z,15.90
2023-03-01T00:16:34.756Z,19.27
2023-03-01T00:17:09.866Z,16.42
2023-03-01T00:17:42.008Z,19.58
2023-03-01T00:18:16.688Z,20.98
2023-03-01T00:18:49.314Z,24.27
2023-03-01T00:19:23.034Z,25.85
2023-03-01T00:19:57.835Z,17.23
2023-03-01T00:20:29.909Z,21.98
2023-03-01T00:21:02.029Z,23.73
2023-03-01T00:21:36.800Z,21.50
2023-03-01T00:22:08.873Z,21.02
2023-03-01T00:22:45.362Z,17.52
2023-03-01T00:23:17.616Z,16.50
2023-03-01T00:23:50.300Z,24.98
2023-03-01T00:24:26.151Z,25.13
2023-03-01T00:24:58.371Z,28.63
2023-03-01T00:25:35.360Z,23.27
2023-03-01T00:26:12.512Z,25.65
2023-03-01T00:26:48.793Z,33.30
2023-03-01T00:27:21.122Z,37.38
2023-03-01T00:27:56.425Z,19.80
2023-03-01T00:28:28.734Z,21.88
2023-03-01T00:29:01.990Z,24.45
2023-03-01T00:29:36.724Z,22.77
2023-03-01T00:30:11.716Z,17.80
2023-03-01T00:30:44.423Z,30.55
2023-03-01T00:31:36.424Z,19.38
2023-03-01T00:32:11.944Z,18.25
2023-03-01T00:32:45.081Z,16.58
2023-03-01T00:33:20.286Z,56.15
2023-03-01T00:33:58.382Z,24.45
2023-03-01T00:34:30.524Z,18.90
2023-03-01T00:35:06.824Z,21.00
2023-03-01T00:35:39.310Z,21.40
2023-03-01T00:36:13.678Z,20.13
2023-03-01T00:36:48.591Z,18.83
2023-03-01T00:37:21.956Z,28.15
2023-03-01T00:37:58.806Z,23.05
2023-03-01T00:38:31.343Z,21.55
2023-03-01T00:39:08.391Z,34.13
2023-03-01T00:39:44.905Z,28.40
2023-03-01T00:40:17.392Z,26.38
2023-03-01T00:40:52.204Z,21.08
2023-03-01T00:41:25.041Z,25.80
2023-03-01T00:41:57.578Z,19.27
2023-03-01T00:42:48.845Z,21.83
2023-03-01T00:43:21.705Z,26.00
2023-03-01T00:43:54.521Z,22.17
2023-03-01T00:44:33.347Z,26.60
2023-03-01T00:45:08.938Z,20.05
2023-03-01T00:45:51.596Z,15.50
2023-03-01T00:46:39.244Z,42.08
2023-03-01T00:47:15.283Z,21.67
2023-03-01T00:47:49.759Z,18.42
2023-03-01T00:48:22.001Z,37.33
2023-03-01T00:49:06.973Z,21.40
2023-03-01T00:49:39.207Z,22.95
2023-03-01T00:50:12.990Z,40.58
2023-03-01T00:50:45.204Z,25.77
2023-03-01T00:51:22.162Z,28.23
2023-03-01T00:51:54.870Z,23.92
2023-03-01T00:52:32.146Z,46.60
2023-03-01T00:53:06.024Z,26.70
2023-03-01T00:53:40.723Z,21.63
2023-03-01T00:54:15.496Z,28.23
2023-03-01T00:54:53.260Z,33.25
2023-03-01T00:55:27.409Z,40.47
2023-03-01T00:55:59.676Z,27.10
2023-03-01T00:56:36.078Z,42.95
2023-03-01T00:57:11.296Z,30.00
2023-03-01T00:57:58.462Z,26.10
2023-03-01T00:59:03.693Z,20.98
2023-03-01T00:59:46.937Z,29.48
2023-03-01T01:00:22.663Z,83.47
2023-03-01T01:00:56.579Z,19.30
2023-03-01T01:01:30.930Z,18.25
2023-03-01T01:02:05.768Z,37.47
2023-03-01T01:02:40.596Z,23.30
2023-03-01T01:03:12.803Z,44.50
2023-03-01T01:03:46.972Z,20.85
2023-03-01T01:04:21.687Z,28.83
2023-03-01T01:04:54.346Z,32.70
2023-03-01T01:05:27.126Z,32.53
2023-03-01T01:05:59.564Z,21.95
2023-03-01T01:06:37.235Z,23.00
2023-03-01T01:07:21.197Z,23.40
2023-03-01T01:07:53.475Z,22.40
2023-03-01T01:08:25.760Z,26.40
2023-03-01T01:09:01.180Z,39.05
2023-03-01T01:09:33.354Z,19.17
2023-03-01T01:10:06.625Z,28.63
2023-03-01T01:10:38.753Z,27.45
2023-03-01T01:11:14.005Z,36.47
2023-03-01T01:11:47.229Z,26.83
2023-03-01T01:12:19.416Z,26.95
2023-03-01T01:12:54.076Z,21.48
2023-03-01T01:13:26.249Z,25.52
2023-03-01T01:13:58.800Z,41.03
2023-03-01T01:14:33.535Z,26.48
2023-03-01T01:15:06.861Z,31.77
2023-03-01T01:15:40.235Z,22.20
2023-03-01T01:16:15.097Z,29.75
2023-03-01T01:16:48.151Z,46.10
2023-03-01T01:17:20.397Z,27.63
2023-03-01T01:17:57.699Z,23.67
2023-03-01T01:18:29.916Z,24.45
2023-03-01T01:19:02.162Z,39.08
2023-03-01T01:19:36.918Z,26.00
2023-03-01T01:20:10.852Z,33.10
2023-03-01T01:20:49.850Z,28.33
2023-03-01T01:21:32.089Z,25.63
2023-03-01T01:22:04.443Z,22.25
2023-03-01T01:22:37.777Z,23.92
2023-03-01T01:23:12.495Z,33.33
2023-03-01T01:23:46.429Z,28.50
2023-03-01T01:24:22.156Z,53.15
2023-03-01T01:24:54.255Z,42.15
2023-03-01T01:25:26.506Z,31.42
2023-03-01T01:25:58.643Z,15.90
2023-03-01T01:26:38.372Z,25.65
2023-03-01T01:27:10.686Z,20.77
2023-03-01T01:27:42.795Z,29.25
2023-03-01T01:28:18.135Z,20.65
2023-03-01T01:28:53.448Z,18.60
2023-03-01T01:29:25.664Z,22.55
2023-03-01T01:29:57.790Z,19.55
2023-03-01T01:30:36.540Z,18.92
2023-03-01T01:31:13.046Z,29.10
2023-03-01T01:31:45.698Z,18.55
2023-03-01T01:32:20.571Z,21.55
2023-03-01T01:32:56.038Z,25.13
2023-03-01T01:33:28.270Z,23.88
2023-03-01T01:34:04.725Z,30.92
2023-03-01T01:34:47.634Z,19.60
2023-03-01T01:35:19.737Z,27.13
2023-03-01T01:35:54.600Z,21.42
2023-03-01T01:36:26.946Z,23.48
2023-03-01T01:37:03.782Z,21.15
2023-03-01T01:37:38.674Z,18.85
2023-03-01T01:38:11.038Z,24.33
2023-03-01T01:38:43.563Z,23.90
2023-03-01T01:39:18.281Z,20.17
2023-03-01T01:39:50.463Z,26.15
2023-03-01T01:40:22.566Z,19.25
2023-03-01T01:40:54.783Z,17.65
2023-03-01T01:41:34.111Z,18.15
2023-03-01T01:42:06.702Z,28.45
2023-03-01T01:42:44.342Z,27.75
2023-03-01T01:44:23.108Z,26.45
2023-03-01T01:45:26.123Z,21.88
2023-03-01T01:46:07.762Z,24.80
2023-03-01T01:46:44.091Z,22.42
2023-03-01T01:47:20.133Z,21.10
2023-03-01T01:47:58.774Z,22.65
2023-03-01T01:49:11.410Z,39.92
2023-03-01T01:49:49.552Z,28.75
2023-03-01T01:50:22.611Z,31.55
2023-03-01T01:51:00.028Z,18.20
2023-03-01T01:51:50.608Z,43.85
2023-03-01T01:52:27.914Z,41.47
2023-03-01T01:53:00.113Z,24.15
2023-03-01T01:53:34.800Z,42.10
2023-03-01T01:54:14.373Z,17.33
2023-03-01T01:55:30.293Z,48.25
2023-03-01T01:56:09.774Z,39.20
2023-03-01T01:56:54.104Z,29.35
2023-03-01T01:57:36.107Z,38.33
2023-03-01T01:58:15.096Z,28.77
2023-03-01T01:58:48.608Z,24.25
2023-03-01T01:59:28.734Z,34.85
2023-03-01T02:00:34.563Z,43.97
2023-03-01T02:01:07.412Z,27.88
2023-03-01T02:01:42.770Z,32.42
2023-03-01T02:02:15.599Z,27.65
2023-03-01T02:02:53.043Z,22.73
2023-03-01T02:03:38.510Z,25.48
2023-03-01T02:04:10.955Z,20.05
2023-03-01T02:04:46.067Z,18.48
2023-03-01T02:05:24.722Z,42.63
2023-03-01T02:06:02.951Z,21.90
2023-03-01T02:06:45.450Z,26.27
2023-03-01T02:07:20.823Z,40.05
2023-03-01T02:07:54.296Z,21.17
2023-03-01T02:08:31.803Z,34.50
2023-03-01T02:09:11.496Z,22.38
2023-03-01T02:09:47.470Z,20.17
2023-03-01T02:10:20.655Z,41.65
2023-03-01T02:10:54.070Z,26.33
2023-03-01T02:11:29.475Z,34.13
2023-03-01T02:12:02.511Z,21.70
2023-03-01T02:12:35.774Z,23.52
2023-03-01T02:13:09.334Z,34.60
2023-03-01T02:13:44.793Z,23.17
2023-03-01T02:14:17.372Z,23.02
2023-03-01T02:14:49.607Z,24.50
2023-03-01T02:15:28.463Z,29.60
2023-03-01T02:16:02.401Z,17.65
2023-03-01T02:16:40.164Z,21.60
2023-03-01T02:17:22.191Z,26.17
2023-03-01T02:17:58.716Z,24.55
2023-03-01T02:18:33.964Z,29.20
2023-03-01T02:19:10.687Z,17.65
2023-03-01T02:19:57.537Z,31.65
2023-03-01T02:20:38.984Z,20.90
2023-03-01T02:21:48.624Z,27.35
2023-03-01T02:22:27.807Z,38.60
2023-03-01T02:23:04.486Z,19.80
2023-03-01T02:23:42.002Z,19.95
2023-03-01T02:24:29.439Z,33.85
2023-03-01T02:25:21.602Z,20.90
2023-03-01T02:26:14.276Z,31.77
2023-03-01T02:27:07.111Z,16.05
2023-03-01T02:27:55.215Z,23.33
2023-03-01T02:28:34.395Z,30.48
2023-03-01T02:29:07.441Z,25.02
2023-03-01T02:29:41.041Z,21.55
2023-03-01T02:30:16.086Z,39.53
2023-03-01T02:31:11.172Z,18.02
2023-03-01T02:31:49.534Z,13.25
2023-03-01T02:32:26.556Z,26.00
2023-03-01T02:33:04.013Z,27.95
2023-03-01T02:33:44.133Z,19.50
2023-03-01T02:34:23.626Z,37.38
2023-03-01T02:35:00.258Z,20.10
2023-03-01T02:35:38.780Z,21.48
2023-03-01T02:36:15.564Z,44.05
2023-03-01T02:36:54.990Z,18.85
2023-03-01T02:37:27.787Z,16.25
2023-03-01T02:38:04.072Z,36.42
2023-03-01T02:38:39.307Z,20.08
2023-03-01T02:39:20.560Z,33.60
2023-03-01T02:40:00.053Z,21.63
2023-03-01T02:40:37.108Z,16.15
2023-03-01T02:41:15.365Z,30.50
2023-03-01T02:41:50.811Z,17.08
2023-03-01T02:42:39.497Z,30.20
2023-03-01T02:43:13.453Z,32.83
2023-03-01T02:43:49.225Z,15.82
2023-03-01T02:44:24.864Z,30.30
2023-03-01T02:44:57.711Z,19.60
2023-03-01T02:45:29.814Z,25.65
2023-03-01T02:46:06.592Z,23.90
2023-03-01T02:46:47.896Z,24.60
2023-03-01T02:47:20.010Z,21.60
2023-03-01T02:47:55.468Z,20.80
2023-03-01T02:48:30.242Z,18.38
2023-03-01T02:49:05.440Z,21.88
2023-03-01T02:49:39.130Z,22.63
2023-03-01T02:50:28.209Z,23.35
2023-03-01T02:51:11.225Z,29.33
2023-03-01T02:51:53.636Z,24.20
2023-03-01T02:52:37.584Z,30.67
2023-03-01T02:53:14.978Z,28.60
2023-03-01T02:53:57.429Z,23.88
2023-03-01T02:54:37.745Z,31.80
2023-03-01T02:55:45.541Z,21.65
2023-03-01T02:56:22.854Z,27.42
2023-03-01T02:56:57.679Z,29.30
2023-03-01T02:57:34.501Z,26.10
2023-03-01T02:58:06.944Z,31.10
2023-03-01T02:58:48.183Z,24.48
2023-03-01T02:59:31.110Z,39.28
2023-03-01T03:00:12.425Z,26.60
2023-03-01T03:01:02.511Z,28.83
2023-03-01T03:01:37.695Z,23.60
2023-03-01T03:02:37.098Z,27.73
2023-03-01T03:03:29.548Z,41.10
2023-03-01T03:04:04.419Z,66.88
2023-03-01T03:04:36.664Z,23.33
2023-03-01T03:05:25.674Z,20.95
2023-03-01T03:06:25.719Z,25.75
2023-03-01T03:08:05.477Z,20.75
2023-03-01T03:08:41.359Z,14.52
2023-03-01T03:09:22.914Z,36.08
2023-03-01T03:09:56.556Z,27.92
2023-03-01T03:10:32.809Z,35.72
2023-03-01T03:11:08.632Z,19.23
2023-03-01T03:11:44.306Z,16.00
2023-03-01T03:12:19.737Z,18.42
2023-03-01T03:12:57.835Z,19.65
2023-03-01T03:13:36.109Z,30.08
2023-03-01T03:14:13.611Z,35.33
2023-03-01T03:15:00.716Z,26.60
2023-03-01T03:15:37.084Z,32.70
2023-03-01T03:16:23.723Z,37.63
2023-03-01T03:16:58.839Z,44.42
2023-03-01T03:17:31.035Z,29.35
2023-03-01T03:18:07.570Z,24.80
2023-03-01T03:18:41.514Z,20.05
2023-03-01T03:19:20.207Z,18.42
2023-03-01T03:19:57.787Z,30.88
2023-03-01T03:20:30.473Z,25.55
2023-03-01T03:21:03.578Z,28.02
2023-03-01T03:22:36.568Z,19.00
2023-03-01T03:23:09.403Z,24.67
2023-03-01T03:23:44.107Z,19.60
2023-03-01T03:24:16.230Z,24.73
2023-03-01T03:24:58.836Z,22.30
2023-03-01T03:25:39.149Z,32.15
2023-03-01T03:26:49.838Z,20.25
2023-03-01T03:27:25.396Z,27.80
2023-03-01T03:27:59.055Z,31.73
2023-03-01T03:28:31.722Z,35.88
2023-03-01T03:29:06.652Z,18.13
2023-03-01T03:29:38.776Z,19.55
2023-03-01T03:30:17.465Z,36.92
2023-03-01T03:30:53.859Z,21.17
2023-03-01T03:31:26.288Z,27.85
2023-03-01T03:31:58.609Z,20.65
2023-03-01T03:32:31.742Z,43.38
2023-03-01T03:33:06.613Z,19.33
2023-03-01T03:33:38.781Z,21.65
2023-03-01T03:34:18.637Z,23.40
2023-03-01T03:34:53.349Z,25.10
2023-03-01T03:35:31.269Z,26.13
2023-03-01T03:36:04.073Z,24.20
2023-03-01T03:36:38.821Z,26.50
2023-03-01T03:37:32.205Z,18.85
2023-03-01T03:38:16.643Z,37.10
2023-03-01T03:38:52.581Z,27.95
2023-03-01T03:39:25.039Z,43.85
2023-03-01T03:39:57.343Z,41.90
2023-03-01T03:40:34.873Z,27.05
2023-03-01T03:41:11.397Z,38.22
2023-03-01T03:41:43.579Z,21.50
2023-03-01T03:42:15.925Z,25.38
2023-03-01T03:42:51.193Z,24.88
2023-03-01T03:43:24.173Z,17.90
2023-03-01T03:44:12.065Z,15.20
2023-03-01T03:44:44.610Z,18.80
2023-03-01T03:45:28.808Z,47.17
2023-03-01T03:46:06.865Z,25.70
2023-03-01T03:46:39.148Z,19.95
2023-03-01T03:47:11.278Z,30.95
2023-03-01T03:47:43.907Z,29.35
2023-03-01T03:48:21.499Z,31.02
2023-03-01T03:48:53.589Z,24.30
2023-03-01T03:49:25.965Z,31.38
2023-03-01T03:50:00.730Z,21.92
2023-03-01T03:50:36.685Z,31.30
2023-03-01T03:51:11.709Z,29.08
2023-03-01T03:51:48.746Z,40.25
2023-03-01T03:52:21.165Z,30.23
2023-03-01T03:52:53.908Z,30.08
2023-03-01T03:53:27.556Z,30.98
2023-03-01T03:54:02.268Z,30.30
2023-03-01T03:54:34.367Z,20.75
2023-03-01T03:55:11.925Z,20.58
2023-03-01T03:55:50.337Z,17.58
2023-03-01T03:56:28.583Z,29.77
2023-03-01T03:57:13.029Z,26.60
2023-03-01T03:57:45.189Z,24.20
2023-03-01T03:58:21.019Z,35.33
2023-03-01T03:58:57.256Z,20.33
2023-03-01T03:59:29.546Z,38.47
2023-03-01T04:00:05.508Z,30.42
2023-03-01T04:00:51.834Z,26.67
2023-03-01T04:01:23.997Z,35.25
2023-03-01T04:01:56.929Z,17.95
2023-03-01T04:02:29.112Z,22.00
2023-03-01T04:03:14.217Z,25.95
2023-03-01T04:03:47.755Z,23.08
2023-03-01T04:04:33.297Z,22.33
2023-03-01T04:06:51.157Z,32.97
2023-03-01T04:07:40.289Z,18.80
2023-03-01T04:08:21.922Z,44.42
2023-03-01T04:09:01.125Z,50.10
2023-03-01T04:09:36.625Z,39.90
2023-03-01T04:10:18.055Z,49.35
2023-03-01T04:10:51.920Z,37.00
2023-03-01T04:11:31.100Z,33.10
2023-03-01T04:12:17.874Z,53.67
2023-03-01T04:12:50.115Z,64.50
2023-03-01T04:13:23.576Z,61.03
2023-03-01T04:14:02.597Z,26.38
2023-03-01T04:14:34.930Z,22.48
2023-03-01T04:15:14.161Z,25.15
2023-03-01T04:15:50.104Z,27.63
2023-03-01T04:16:25.275Z,36.17
2023-03-01T04:17:00.244Z,24.13
2023-03-01T04:17:44.553Z,48.28
2023-03-01T04:18:20.615Z,41.13
2023-03-01T04:18:54.615Z,34.00
2023-03-01T04:19:34.746Z,39.38
2023-03-01T04:20:09.019Z,52.75
2023-03-01T04:20:44.151Z,65.28
2023-03-01T04:21:16.458Z,30.90
2023-03-01T04:21:52.603Z,51.17
2023-03-01T04:22:30.660Z,37.97
2023-03-01T04:23:11.750Z,47.22
2023-03-01T04:23:47.011Z,25.33
2023-03-01T04:24:24.088Z,35.50
2023-03-01T04:24:56.466Z,28.80
2023-03-01T04:25:31.137Z,50.65
2023-03-01T04:26:04.195Z,39.70
2023-03-01T04:26:50.170Z,38.70
2023-03-01T04:27:25.305Z,56.65
2023-03-01T04:27:58.622Z,44.78
2023-03-01T04:28:38.048Z,57.25
2023-03-01T04:29:24.665Z,45.92
2023-03-01T04:29:57.268Z,39.92
2023-03-01T04:30:30.482Z,35.13
2023-03-01T04:31:18.551Z,32.65
2023-03-01T04:31:50.828Z,30.77
2023-03-01T04:32:23.137Z,35.05
2023-03-01T04:33:04.385Z,38.80
2023-03-01T04:33:36.490Z,23.35
2023-03-01T04:34:15.219Z,26.13
2023-03-01T04:34:47.334Z,23.17
2023-03-01T04:35:19.576Z,27.10
2023-03-01T04:35:58.829Z,30.30
2023-03-01T04:36:31.896Z,31.55
2023-03-01T04:37:04.745Z,32.10
2023-03-01T04:37:42.770Z,35.97
2023-03-01T04:38:21.342Z,27.73
2023-03-01T04:38:56.507Z,24.80
2023-03-01T04:39:31.955Z,26.05
2023-03-01T04:40:13.421Z,42.83
2023-03-01T04:40:48.703Z,21.15
2023-03-01T04:41:24.670Z,24.75
2023-03-01T04:41:56.826Z,25.50
2023-03-01T04:42:28.954Z,39.90
2023-03-01T04:43:03.664Z,53.58
2023-03-01T04:43:36.337Z,44.28
2023-03-01T04:44:12.055Z,53.13
2023-03-01T04:44:44.445Z,45.30
2023-03-01T04:45:17.309Z,58.25
2023-03-01T04:45:52.216Z,57.45
2023-03-01T04:46:29.202Z,35.40
2023-03-01T04:47:03.409Z,42.05
2023-03-01T04:47:39.334Z,42.22
2023-03-01T04:48:20.357Z,39.38
2023-03-01T04:48:55.592Z,34.10
2023-03-01T04:49:31.274Z,51.28
2023-03-01T04:50:04.808Z,42.97
2023-03-01T04:50:45.296Z,34.10
2023-03-01T04:51:20.727Z,42.00
2023-03-01T04:51:54.167Z,36.83
2023-03-01T04:52:29.358Z,45.38
2023-03-01T04:53:03.930Z,42.55
2023-03-01T04:53:42.029Z,33.95
2023-03-01T04:54:14.204Z,39.95
2023-03-01T04:54:48.902Z,33.83
2023-03-01T04:55:23.633Z,62.83
2023-03-01T04:55:57.702Z,58.72
2023-03-01T04:56:32.229Z,53.47
2023-03-01T04:57:11.650Z,44.78
2023-03-01T04:57:45.599Z,30.80
2023-03-01T04:58:36.426Z,47.25
2023-03-01T04:59:28.260Z,22.58
2023-03-01T05:00:01.088Z,27.77
2023-03-01T05:00:35.789Z,41.08
2023-03-01T05:01:16.746Z,43.40
2023-03-01T05:01:58.507Z,30.38
2023-03-01T05:02:30.634Z,40.92
2023-03-01T05:03:07.670Z,34.25
2023-03-01T05:03:43.525Z,57.33
2023-03-01T05:04:15.859Z,40.65
2023-03-01T05:04:48.062Z,31.95
2023-03-01T05:05:26.795Z,36.67
2023-03-01T05:06:00.852Z,37.08
2023-03-01T05:06:34.236Z,26.70
2023-03-01T05:07:08.985Z,33.92
2023-03-01T05:07:41.276Z,27.80
2023-03-01T05:08:19.106Z,32.90
2023-03-01T05:08:53.839Z,20.60
2023-03-01T05:09:26.201Z,41.75
2023-03-01T05:09:58.277Z,28.75
2023-03-01T05:10:36.058Z,31.45
2023-03-01T05:11:09.979Z,49.63
2023-03-01T05:11:44.728Z,32.47
2023-03-01T05:12:17.038Z,29.15
2023-03-01T05:12:53.228Z,39.88
2023-03-01T05:13:30.255Z,45.95
2023-03-01T05:14:02.394Z,42.45
2023-03-01T05:14:34.598Z,27.85
2023-03-01T05:15:08.232Z,43.30
2023-03-01T05:15:44.079Z,67.63
2023-03-01T05:16:18.256Z,31.63
2023-03-01T05:16:50.361Z,45.72
2023-03-01T05:17:27.922Z,51.25
2023-03-01T05:18:01.867Z,55.20
2023-03-01T05:18:37.931Z,53.15
2023-03-01T05:19:16.360Z,62.00
2023-03-01T05:19:48.752Z,26.60
2023-03-01T05:20:25.334Z,69.40
2023-03-01T05:21:06.736Z,50.78
2023-03-01T05:21:59.928Z,39.28
2023-03-01T05:22:34.744Z,59.13
2023-03-01T05:23:07.281Z,62.63
2023-03-01T05:23:40.166Z,37.40
2023-03-01T05:24:15.379Z,41.28
2023-03-01T05:24:47.941Z,59.97
2023-03-01T05:25:20.161Z,46.25
2023-03-01T05:25:55.768Z,59.17
2023-03-01T05:26:29.744Z,50.88
2023-03-01T05:27:03.820Z,38.38
2023-03-01T05:27:36.610Z,39.67
2023-03-01T05:28:16.561Z,57.30
2023-03-01T05:28:50.344Z,35.05
2023-03-01T05:29:26.149Z,59.22
2023-03-01T05:30:14.313Z,29.30
2023-03-01T05:30:47.076Z,41.35
2023-03-01T05:31:19.212Z,53.67
2023-03-01T05:31:54.323Z,40.85
2023-03-01T05:32:32.086Z,70.70
2023-03-01T05:33:11.537Z,77.68
2023-03-01T05:33:44.530Z,69.53
2023-03-01T05:34:16.629Z,51.00
2023-03-01T05:34:53.268Z,42.97
2023-03-01T05:35:25.563Z,52.95
2023-03-01T05:36:04.261Z,50.42
2023-03-01T05:36:36.492Z,55.58
2023-03-01T05:37:10.082Z,48.92
2023-03-01T05:37:45.969Z,66.43
2023-03-01T05:38:18.681Z,75.50
2023-03-01T05:38:50.799Z,50.80
2023-03-01T05:39:27.117Z,39.60
2023-03-01T05:39:59.254Z,38.13
2023-03-01T05:40:31.360Z,47.85
2023-03-01T05:41:06.237Z,43.13
2023-03-01T05:41:38.340Z,37.00
2023-03-01T05:42:12.724Z,83.18
2023-03-01T05:42:47.921Z,53.92
2023-03-01T05:43:20.104Z,78.70
2023-03-01T05:43:52.235Z,65.80
2023-03-01T05:44:27.253Z,54.22
2023-03-01T05:44:59.550Z,66.10
2023-03-01T05:45:33.469Z,38.42
2023-03-01T05:46:08.430Z,51.58
2023-03-01T05:46:40.569Z,49.60
2023-03-01T05:47:12.708Z,113.22
2023-03-01T05:47:51.693Z,43.85
2023-03-01T05:48:23.986Z,33.78
2023-03-01T05:48:56.317Z,53.17
2023-03-01T05:49:31.262Z,41.78
2023-03-01T05:50:03.406Z,55.90
2023-03-01T05:50:40.997Z,49.80
2023-03-01T05:51:13.312Z,38.55
2023-03-01T05:51:49.626Z,46.33
2023-03-01T05:52:24.334Z,59.78
2023-03-01T05:52:59.705Z,47.00
2023-03-01T05:53:34.593Z,73.03
2023-03-01T05:54:07.030Z,54.35
2023-03-01T05:54:39.788Z,39.97
2023-03-01T05:55:11.911Z,57.13
2023-03-01T05:55:48.451Z,42.22
2023-03-01T05:56:20.693Z,58.65
2023-03-01T05:56:52.847Z,50.50
2023-03-01T05:57:27.553Z,38.97
2023-03-01T05:58:00.402Z,58.13
2023-03-01T05:58:32.847Z,42.47
2023-03-01T05:59:08.811Z,45.97
2023-03-01T05:59:41.216Z,62.28
2023-03-01T06:00:15.865Z,50.25
2023-03-01T06:00:53.990Z,52.53
2023-03-01T06:01:27.127Z,59.47
2023-03-01T06:01:59.324Z,41.08
2023-03-01T06:02:34.027Z,45.95
2023-03-01T06:03:11.546Z,70.28
2023-03-01T06:03:46.443Z,39.13
2023-03-01T06:04:18.639Z,43.78
2023-03-01T06:04:50.907Z,58.50
2023-03-01T06:05:26.635Z,43.63
2023-03-01T06:05:58.904Z,33.17
2023-03-01T06:06:34.913Z,48.20
2023-03-01T06:07:09.671Z,36.10
2023-03-01T06:07:42.480Z,70.05
2023-03-01T06:08:15.030Z,101.95
2023-03-01T06:08:49.719Z,49.60
2023-03-01T06:09:21.900Z,53.25
2023-03-01T06:09:54.041Z,47.88
2023-03-01T06:10:28.886Z,72.97
2023-03-01T06:11:01.020Z,60.00
2023-03-01T06:11:36.549Z,71.70
2023-03-01T06:12:13.037Z,48.08
2023-03-01T06:12:45.992Z,45.58
2023-03-01T06:13:21.492Z,69.40
2023-03-01T06:13:54.267Z,79.47
2023-03-01T06:14:26.415Z,74.20
2023-03-01T06:15:01.090Z,53.03
2023-03-01T06:15:33.334Z,65.28
2023-03-01T06:16:07.146Z,44.90
2023-03-01T06:16:41.851Z,89.13
2023-03-01T06:17:14.087Z,103.10
2023-03-01T06:17:47.285Z,49.65
2023-03-01T06:18:24.634Z,71.95
2023-03-01T06:18:56.959Z,52.95
2023-03-01T06:19:29.140Z,99.32
2023-03-01T06:20:03.817Z,56.83
2023-03-01T06:20:36.740Z,76.20
2023-03-01T06:21:09.397Z,85.88
2023-03-01T06:21:44.209Z,54.75
2023-03-01T06:22:16.338Z,48.35
2023-03-01T06:22:50.168Z,72.72
2023-03-01T06:23:24.947Z,66.47
2023-03-01T06:23:57.311Z,54.70
2023-03-01T06:24:29.980Z,81.45
2023-03-01T06:25:04.728Z,35.58
2023-03-01T06:25:37.165Z,50.40
2023-03-01T06:26:10.092Z,81.75
2023-03-01T06:26:44.784Z,73.38
2023-03-01T06:27:17.458Z,103.00
2023-03-01T06:27:50.477Z,61.53
2023-03-01T06:28:25.883Z,59.53
2023-03-01T06:28:58.282Z,62.20
2023-03-01T06:29:30.656Z,72.15
2023-03-01T06:30:05.996Z,102.88
2023-03-01T06:30:38.371Z,60.63
2023-03-01T06:31:10.677Z,63.97
2023-03-01T06:31:46.893Z,43.17
2023-03-01T06:32:19.731Z,48.03
2023-03-01T06:32:52.134Z,57.78
2023-03-01T06:33:29.485Z,69.75
2023-03-01T06:34:02.110Z,59.85
2023-03-01T06:34:34.206Z,60.60
2023-03-01T06:35:11.796Z,50.95
2023-03-01T06:35:44.127Z,47.22
2023-03-01T06:36:19.817Z,78.88
2023-03-01T06:36:52.118Z,66.05
2023-03-01T06:37:24.318Z,73.55
2023-03-01T06:37:59.776Z,73.70
2023-03-01T06:38:32.119Z,79.43
2023-03-01T06:39:04.598Z,73.28
2023-03-01T06:39:40.108Z,82.20
2023-03-01T06:40:14.416Z,69.85
2023-03-01T06:40:52.530Z,54.70
2023-03-01T06:41:27.411Z,74.72
2023-03-01T06:41:59.902Z,48.65
2023-03-01T06:42:32.068Z,53.53
2023-03-01T06:43:08.268Z,63.33
2023-03-01T06:43:40.416Z,55.22
2023-03-01T06:44:12.622Z,73.22
2023-03-01T06:44:48.300Z,56.95
2023-03-01T06:45:21.731Z,59.38
2023-03-01T06:45:56.469Z,47.92
2023-03-01T06:46:29.087Z,46.35
2023-03-01T06:47:01.607Z,50.50
2023-03-01T06:47:36.983Z,58.78
2023-03-01T06:48:09.154Z,64.25
2023-03-01T06:48:46.460Z,70.43
2023-03-01T06:49:18.941Z,47.70
2023-03-01T06:49:53.724Z,54.05
2023-03-01T06:50:25.834Z,71.57
2023-03-01T06:51:02.530Z,42.95
2023-03-01T06:51:34.652Z,83.95
2023-03-01T06:52:06.777Z,86.32
2023-03-01T06:52:41.813Z,65.35
2023-03-01T06:53:13.942Z,57.97
2023-03-01T06:53:49.848Z,75.10
2023-03-01T06:54:23.358Z,52.72
2023-03-01T06:54:55.492Z,70.50
2023-03-01T06:55:30.454Z,87.72
2023-03-01T06:56:02.712Z,57.60
2023-03-01T06:56:37.674Z,47.50
2023-03-01T06:57:09.770Z,48.25
2023-03-01T06:57:41.878Z,53.58
2023-03-01T06:58:16.625Z,53.13
2023-03-01T06:58:48.722Z,69.55
2023-03-01T06:59:20.986Z,66.45
2023-03-01T06:59:55.740Z,68.88
2023-03-01T07:00:28.869Z,38.85
2023-03-01T07:01:01.087Z,56.50
2023-03-01T07:01:35.957Z,59.45
2023-03-01T07:02:11.337Z,46.55
2023-03-01T07:02:43.532Z,54.33
2023-03-01T07:03:18.326Z,72.32
2023-03-01T07:03:53.290Z,52.63
2023-03-01T07:04:25.531Z,72.20
2023-03-01T07:05:00.410Z,63.95
2023-03-01T07:05:34.332Z,41.85
2023-03-01T07:06:06.956Z,52.00
2023-03-01T07:06:42.001Z,65.70
2023-03-01T07:07:14.267Z,60.13
2023-03-01T07:07:46.394Z,59.45
2023-03-01T07:08:21.528Z,74.35
2023-03-01T07:08:53.650Z,40.80
2023-03-01T07:09:28.656Z,46.67
2023-03-01T07:10:01.166Z,86.22
2023-03-01T07:10:36.119Z,68.28
2023-03-01T07:11:08.234Z,139.10
2023-03-01T07:11:42.926Z,83.40
2023-03-01T07:12:15.157Z,78.47
2023-03-01T07:12:50.219Z,82.78
2023-03-01T07:13:22.351Z,82.47
2023-03-01T07:13:57.326Z,69.28
2023-03-01T07:14:29.708Z,74.20
2023-03-01T07:15:01.855Z,56.22
2023-03-01T07:15:36.668Z,71.07
2023-03-01T07:16:09.321Z,75.50
2023-03-01T07:16:41.552Z,76.90
2023-03-01T07:17:16.365Z,58.67
2023-03-01T07:17:51.023Z,78.53
2023-03-01T07:18:25.893Z,69.68
2023-03-01T07:19:00.920Z,76.95
2023-03-01T07:19:33.239Z,81.63
2023-03-01T07:20:08.866Z,83.57
2023-03-01T07:20:41.124Z,57.83
2023-03-01T07:21:18.164Z,57.88
2023-03-01T07:21:50.368Z,72.00
2023-03-01T07:22:22.517Z,94.70
2023-03-01T07:22:59.720Z,63.58
2023-03-01T07:23:32.058Z,86.38
2023-03-01T07:24:04.572Z,106.20
2023-03-01T07:24:39.263Z,114.60
2023-03-01T07:25:11.824Z,118.38
2023-03-01T07:25:43.974Z,98.32
2023-03-01T07:26:18.852Z,106.70
2023-03-01T07:26:51.488Z,67.57
2023-03-01T07:27:26.166Z,67.40
2023-03-01T07:27:58.254Z,69.40
2023-03-01T07:28:37.056Z,64.43
2023-03-01T07:29:11.581Z,64.88
2023-03-01T07:29:46.296Z,88.30
2023-03-01T07:30:18.684Z,57.55
2023-03-01T07:30:53.388Z,90.90
2023-03-01T07:31:25.841Z,81.95
2023-03-01T07:31:58.166Z,75.93
2023-03-01T07:32:32.917Z,53.33
2023-03-01T07:33:05.270Z,65.93
2023-03-01T07:33:40.161Z,76.55
2023-03-01T07:34:14.838Z,91.80
2023-03-01T07:34:49.673Z,73.50
2023-03-01T07:35:21.976Z,73.80
2023-03-01T07:35:59.091Z,80.95
2023-03-01T07:36:33.907Z,62.75
2023-03-01T07:37:06.050Z,66.85
2023-03-01T07:37:38.243Z,100.82
2023-03-01T07:38:13.044Z,63.05
2023-03-01T07:38:45.248Z,66.22
2023-03-01T07:39:20.067Z,62.33
2023-03-01T07:39:52.217Z,48.90
2023-03-01T07:40:26.994Z,65.55
2023-03-01T07:41:00.332Z,65.28
2023-03-01T07:41:35.043Z,49.42
2023-03-01T07:42:07.286Z,90.22
2023-03-01T07:42:39.650Z,53.50
2023-03-01T07:43:14.390Z,59.17
2023-03-01T07:43:46.586Z,75.72
2023-03-01T07:44:18.703Z,63.33
2023-03-01T07:44:53.417Z,46.03
2023-03-01T07:45:26.201Z,62.47
2023-03-01T07:46:00.591Z,50.65
2023-03-01T07:46:35.596Z,72.88
2023-03-01T07:47:07.715Z,59.92